Time;durP1;ratioP1;P1;durP2;ratioP2;P2;SDS_P1;SDS_P2;PMS_P1;PMS_P2;Temp;Humidity;BMP_temperature;BMP_pressure;BME280_temperature;BME280_humidity;BME280_pressure;Samples;Min_cycle;Max_cycle;Signal;HPM_P1;HPM_P2
2021/10/28 00:13:12;;;;;;;7.00;4.73;;;5.00;90.40;;;;;;4985798;28;20229;-69
2021/10/28 00:15:39;;;;;;;9.10;5.03;;;5.00;90.50;;;;;;4984004;28;20217;-69
2021/10/28 00:18:14;;;;;;;7.53;5.00;;;5.00;90.20;;;;;;4984978;28;20694;-69
2021/10/28 00:20:40;;;;;;;12.30;5.60;;;5.00;90.40;;;;;;4986320;28;20193;-69
2021/10/28 00:23:08;;;;;;;6.90;4.60;;;4.90;90.40;;;;;;4986810;28;20270;-69
2021/10/28 00:25:34;;;;;;;6.70;4.80;;;4.90;90.40;;;;;;4983762;28;20268;-69
2021/10/28 00:28:02;;;;;;;7.50;5.07;;;4.90;90.30;;;;;;4986836;28;20193;-69
2021/10/28 00:30:28;;;;;;;9.47;5.17;;;4.90;90.60;;;;;;4985448;28;20220;-69
2021/10/28 00:32:55;;;;;;;11.53;5.30;;;4.90;90.70;;;;;;4982729;28;20200;-69
2021/10/28 00:35:21;;;;;;;12.20;6.30;;;4.90;90.70;;;;;;4987096;28;20251;-69
2021/10/28 00:37:47;;;;;;;8.07;5.10;;;4.90;90.50;;;;;;5028373;28;20212;-69
2021/10/28 00:40:13;;;;;;;5.70;4.87;;;4.90;90.70;;;;;;5025835;28;20181;-69
2021/10/28 00:42:39;;;;;;;8.10;5.40;;;4.90;90.80;;;;;;5024608;28;20246;-69
2021/10/28 00:45:09;;;;;;;5.33;4.47;;;4.90;90.60;;;;;;5027396;28;20182;-69
2021/10/28 00:47:38;;;;;;;5.73;4.23;;;4.80;90.60;;;;;;5026986;28;20314;-68
2021/10/28 00:50:05;;;;;;;6.30;4.23;;;4.80;90.60;;;;;;5029368;28;20177;-69
2021/10/28 00:52:33;;;;;;;9.00;5.10;;;4.80;90.50;;;;;;5019441;28;20570;-69
2021/10/28 00:54:59;;;;;;;4.93;4.43;;;4.70;90.70;;;;;;5023362;28;20185;-68
2021/10/28 00:57:25;;;;;;;3.90;3.60;;;4.70;90.80;;;;;;5024858;28;20200;-69
2021/10/28 00:59:51;;;;;;;5.87;3.87;;;4.70;90.80;;;;;;5021531;28;20325;-69
2021/10/28 01:02:17;;;;;;;4.30;3.53;;;4.70;90.80;;;;;;5025363;28;20189;-68
2021/10/28 01:04:43;;;;;;;5.37;4.17;;;4.60;91.00;;;;;;5025644;28;20208;-68
2021/10/28 01:07:09;;;;;;;6.23;4.57;;;4.60;91.10;;;;;;5022034;28;20196;-68
2021/10/28 01:09:34;;;;;;;4.93;4.17;;;4.60;91.10;;;;;;5020781;28;20183;-68
2021/10/28 01:12:00;;;;;;;6.40;4.07;;;4.60;91.00;;;;;;5025065;28;20650;-67
2021/10/28 01:14:26;;;;;;;4.53;4.20;;;4.60;90.90;;;;;;5026362;28;22211;-70
2021/10/28 01:16:55;;;;;;;3.90;3.40;;;4.60;91.00;;;;;;5026969;28;20176;-69
2021/10/28 01:19:22;;;;;;;4.43;4.03;;;4.60;91.00;;;;;;5025629;28;20230;-68
2021/10/28 01:21:49;;;;;;;5.03;4.53;;;4.60;91.00;;;;;;5023641;28;20269;-68
2021/10/28 01:24:15;;;;;;;5.70;4.70;;;4.60;90.90;;;;;;5027461;28;20180;-69
2021/10/28 01:26:41;;;;;;;7.77;3.50;;;4.60;91.10;;;;;;5025929;28;20258;-68
2021/10/28 01:29:07;;;;;;;7.87;5.47;;;4.60;91.00;;;;;;5026816;28;20188;-67
2021/10/28 01:31:35;;;;;;;10.27;5.73;;;4.60;91.00;;;;;;5023398;28;20275;-68
2021/10/28 01:34:04;;;;;;;12.07;5.67;;;4.50;91.00;;;;;;5027856;28;20187;-69
2021/10/28 01:36:30;;;;;;;8.63;5.93;;;4.50;90.90;;;;;;5024704;28;20246;-69
2021/10/28 01:38:57;;;;;;;9.60;5.90;;;4.50;90.90;;;;;;5023591;28;20706;-69
2021/10/28 01:41:25;;;;;;;9.20;5.60;;;4.50;90.90;;;;;;5023213;28;20211;-69
2021/10/28 01:43:53;;;;;;;9.93;5.77;;;4.50;91.00;;;;;;5026727;28;20296;-69
2021/10/28 01:46:22;;;;;;;6.03;5.43;;;4.50;91.10;;;;;;5026151;28;20186;-69
2021/10/28 01:48:48;;;;;;;8.73;6.07;;;4.40;91.40;;;;;;5029407;28;20239;-69
2021/10/28 01:51:20;;;;;;;9.90;5.80;;;4.40;91.40;;;;;;5026244;28;20186;-69
2021/10/28 01:53:46;;;;;;;8.40;5.70;;;4.40;91.30;;;;;;5021934;28;20272;-69
2021/10/28 01:56:12;;;;;;;13.13;6.83;;;4.40;91.40;;;;;;5024788;28;20203;-69
2021/10/28 01:58:38;;;;;;;15.37;7.00;;;4.40;91.40;;;;;;5027831;28;20212;-69
2021/10/28 02:01:06;;;;;;;12.27;6.63;;;4.40;91.40;;;;;;5020970;28;20189;-69
2021/10/28 02:03:32;;;;;;;8.93;5.33;;;4.40;91.40;;;;;;5017796;28;20577;-68
2021/10/28 02:05:58;;;;;;;8.63;5.63;;;4.40;91.40;;;;;;5021420;28;20181;-69
2021/10/28 02:08:25;;;;;;;7.37;5.97;;;4.40;91.60;;;;;;5024037;28;20251;-69
2021/10/28 02:10:51;;;;;;;12.17;5.70;;;4.40;91.60;;;;;;5026888;28;20177;-69
2021/10/28 02:13:18;;;;;;;8.50;6.37;;;4.40;91.50;;;;;;5026552;28;20295;-69
2021/10/28 02:15:44;;;;;;;11.03;6.63;;;4.30;91.70;;;;;;5026425;28;20302;-69
2021/10/28 02:18:10;;;;;;;10.07;6.70;;;4.20;92.20;;;;;;5026563;28;20299;-69
2021/10/28 02:20:38;;;;;;;8.20;6.13;;;4.20;92.50;;;;;;5023063;28;20606;-68
2021/10/28 02:23:05;;;;;;;9.43;5.53;;;4.10;92.70;;;;;;5025021;28;20181;-69
2021/10/28 02:25:30;;;;;;;11.10;5.60;;;4.10;92.70;;;;;;5024119;28;20188;-70
2021/10/28 02:27:57;;;;;;;9.23;5.70;;;4.00;92.70;;;;;;5027692;28;20245;-69
2021/10/28 02:30:23;;;;;;;6.03;4.83;;;4.00;92.90;;;;;;5024712;28;20311;-69
2021/10/28 02:32:50;;;;;;;8.37;5.57;;;4.00;92.70;;;;;;5024338;28;20710;-69
2021/10/28 02:35:16;;;;;;;5.50;4.77;;;4.00;92.80;;;;;;5023044;28;20216;-69
2021/10/28 02:37:42;;;;;;;10.80;5.37;;;3.90;92.90;;;;;;5018577;28;20216;-69
2021/10/28 02:40:09;;;;;;;11.23;6.10;;;4.00;92.60;;;;;;5023267;28;20192;-69
2021/10/28 02:42:35;;;;;;;7.93;5.70;;;4.00;92.30;;;;;;5023876;28;20208;-69
2021/10/28 02:45:01;;;;;;;8.10;5.10;;;4.00;92.10;;;;;;5026138;28;20339;-69
2021/10/28 02:47:27;;;;;;;8.40;5.63;;;4.00;92.10;;;;;;5023690;28;20180;-69
2021/10/28 02:49:53;;;;;;;11.50;5.90;;;4.00;92.20;;;;;;5024242;28;20199;-69
2021/10/28 02:52:18;;;;;;;7.40;5.00;;;4.00;92.00;;;;;;5025085;28;20366;-69
2021/10/28 02:54:44;;;;;;;7.83;5.03;;;3.90;92.00;;;;;;5014959;28;20191;-69
2021/10/28 02:57:10;;;;;;;6.57;5.80;;;3.90;92.20;;;;;;5021708;28;20215;-69
2021/10/28 02:59:35;;;;;;;6.10;5.50;;;3.90;92.00;;;;;;5023365;28;20188;-68
2021/10/28 03:02:02;;;;;;;6.57;4.90;;;3.90;91.80;;;;;;5022066;28;20207;-69
2021/10/28 03:04:28;;;;;;;5.90;5.30;;;3.90;91.60;;;;;;5019225;28;20185;-68
2021/10/28 03:06:54;;;;;;;8.90;5.47;;;3.90;91.50;;;;;;5022572;28;20630;-69
2021/10/28 03:09:22;;;;;;;7.77;4.93;;;3.90;91.40;;;;;;5023865;28;20180;-69
2021/10/28 03:11:50;;;;;;;5.60;5.10;;;3.90;91.60;;;;;;5020391;28;20238;-69
2021/10/28 03:14:21;;;;;;;12.13;5.60;;;3.90;91.60;;;;;;5024545;28;20180;-67
2021/10/28 03:27:26;;;;;;;11.23;6.63;;;3.80;92.30;;;;;;5021670;28;20755;-68
2021/10/28 03:29:52;;;;;;;11.87;7.50;;;3.80;92.60;;;;;;5022093;28;20192;-67
2021/10/28 03:32:21;;;;;;;11.63;6.70;;;3.70;92.50;;;;;;5025404;28;20184;-68
2021/10/28 03:34:49;;;;;;;7.50;5.73;;;3.70;92.70;;;;;;5025633;28;20224;-67
2021/10/28 03:37:18;;;;;;;8.30;5.90;;;3.70;92.90;;;;;;5026330;28;20629;-68
2021/10/28 04:20:20;;;;;;;11.47;5.80;;;3.40;93.20;;;;;;5001160;28;20753;-69
2021/10/28 04:30:35;;;;;;;6.20;5.40;;;3.40;92.60;;;;;;5026895;28;20185;-69
2021/10/28 04:33:00;;;;;;;7.17;5.30;;;3.40;92.40;;;;;;5027293;28;20176;-68
2021/10/28 04:35:26;;;;;;;10.60;6.13;;;3.30;92.60;;;;;;5027901;28;20257;-68
2021/10/28 04:37:52;;;;;;;9.43;6.37;;;3.30;92.60;;;;;;5025463;28;20390;-69
2021/10/28 04:40:18;;;;;;;9.37;6.50;;;3.30;92.70;;;;;;5024764;28;20188;-68
2021/10/28 04:42:43;;;;;;;10.20;6.43;;;3.30;92.80;;;;;;5026531;28;20673;-68
2021/10/28 04:45:09;;;;;;;6.90;5.17;;;3.30;92.70;;;;;;5025179;28;20213;-69
2021/10/28 04:47:35;;;;;;;6.00;5.40;;;3.20;92.70;;;;;;5028171;28;20561;-69
2021/10/28 04:50:01;;;;;;;7.37;5.50;;;3.30;93.00;;;;;;5024728;28;20184;-69
2021/10/28 04:52:29;;;;;;;5.77;4.57;;;3.30;93.00;;;;;;5021972;28;20191;-69
2021/10/28 04:54:55;;;;;;;4.90;4.40;;;3.30;93.30;;;;;;5023689;28;20187;-69
2021/10/28 04:57:21;;;;;;;8.73;6.30;;;3.30;93.50;;;;;;5023975;28;20646;-69
2021/10/28 04:59:46;;;;;;;10.67;6.67;;;3.30;93.50;;;;;;5025573;28;20176;-69
2021/10/28 05:02:12;;;;;;;14.10;6.83;;;3.30;93.60;;;;;;5025439;28;20188;-69
2021/10/28 05:04:38;;;;;;;13.00;5.97;;;3.30;93.70;;;;;;5024013;28;20651;-69
2021/10/28 05:07:03;;;;;;;7.33;6.00;;;3.20;93.80;;;;;;5024337;28;20861;-69
2021/10/28 05:09:30;;;;;;;8.03;6.37;;;3.20;93.80;;;;;;5020760;28;21107;-69
2021/10/28 05:11:58;;;;;;;9.47;6.73;;;3.30;93.80;;;;;;5024325;28;20192;-69
2021/10/28 05:14:24;;;;;;;9.93;5.90;;;3.30;93.80;;;;;;5027177;28;20235;-69
2021/10/28 05:16:55;;;;;;;8.90;5.80;;;3.30;93.80;;;;;;5024452;28;20677;-69
2021/10/28 05:19:22;;;;;;;9.77;6.03;;;3.30;93.80;;;;;;5018593;28;20196;-69
2021/10/28 05:21:48;;;;;;;6.63;5.57;;;3.30;93.80;;;;;;5015656;28;20249;-70
2021/10/28 05:24:14;;;;;;;12.47;6.40;;;3.40;93.80;;;;;;5016259;28;20899;-69
2021/10/28 05:26:40;;;;;;;7.17;5.47;;;3.40;93.70;;;;;;5015174;28;20293;-70
2021/10/28 05:29:05;;;;;;;7.33;5.77;;;3.50;93.60;;;;;;5016402;28;20238;-69
2021/10/28 05:31:31;;;;;;;10.03;6.00;;;3.50;93.70;;;;;;5025467;28;20184;-68
2021/10/28 05:33:57;;;;;;;7.27;5.90;;;3.50;93.60;;;;;;5026646;28;20196;-68
2021/10/28 05:36:22;;;;;;;8.07;5.93;;;3.60;93.50;;;;;;5025515;28;20184;-69
2021/10/28 05:38:48;;;;;;;19.50;5.83;;;3.60;93.50;;;;;;5021528;28;20244;-68
2021/10/28 05:41:14;;;;;;;5.77;5.27;;;3.70;93.60;;;;;;5023357;28;20267;-68
2021/10/28 05:43:39;;;;;;;9.83;6.00;;;3.70;93.50;;;;;;5027183;28;20184;-68
2021/10/28 05:46:05;;;;;;;8.90;5.50;;;3.80;93.50;;;;;;5022479;28;20258;-68
2021/10/28 05:48:31;;;;;;;11.53;5.93;;;3.90;93.40;;;;;;5023688;28;20180;-68
2021/10/28 05:50:57;;;;;;;13.13;6.80;;;3.90;93.30;;;;;;5023629;28;20263;-68
2021/10/28 05:53:23;;;;;;;7.20;5.97;;;4.00;93.40;;;;;;5023461;28;20327;-68
2021/10/28 05:55:49;;;;;;;12.90;7.10;;;4.10;93.40;;;;;;5022352;28;20729;-68
2021/10/28 05:58:15;;;;;;;5.50;5.00;;;4.20;93.40;;;;;;5021478;28;20587;-70
2021/10/28 06:00:41;;;;;;;6.83;4.97;;;4.30;93.10;;;;;;5023051;28;20686;-72
2021/10/28 06:03:06;;;;;;;8.97;5.53;;;4.30;93.00;;;;;;5023443;28;20230;-71
2021/10/28 06:05:32;;;;;;;11.17;7.17;;;4.40;92.90;;;;;;5025916;28;20180;-72
2021/10/28 06:07:58;;;;;;;10.20;6.83;;;4.50;92.70;;;;;;5025712;28;20199;-71
2021/10/28 06:10:24;;;;;;;19.03;6.97;;;4.50;92.60;;;;;;5025716;28;20179;-71
2021/10/28 06:12:52;;;;;;;12.17;6.97;;;4.60;92.40;;;;;;5025189;28;20236;-72
2021/10/28 06:15:20;;;;;;;8.10;6.43;;;4.60;92.50;;;;;;5024328;28;20180;-72
2021/10/28 06:20:35;;;;;;;16.33;7.93;;;4.80;92.30;;;;;;4964549;28;20805;-69
2021/10/28 06:23:01;;;;;;;12.30;8.43;;;4.90;92.10;;;;;;4963528;28;20198;-71
2021/10/28 06:25:27;;;;;;;14.47;8.90;;;4.90;92.00;;;;;;4960017;28;20269;-72
2021/10/28 06:27:52;;;;;;;18.53;9.87;;;5.00;92.00;;;;;;4945014;28;20202;-72
2021/10/28 06:30:18;;;;;;;14.87;9.87;;;5.10;91.80;;;;;;4961596;28;20194;-72
2021/10/28 06:32:48;;;;;;;17.27;10.30;;;5.10;91.70;;;;;;4943100;28;20233;-73
2021/10/28 06:35:14;;;;;;;21.97;10.30;;;5.20;91.40;;;;;;4959194;28;20650;-72
2021/10/28 06:37:45;;;;;;;18.63;8.90;;;5.30;91.40;;;;;;4948515;28;20244;-72
2021/10/28 06:40:11;;;;;;;8.23;6.40;;;5.50;91.50;;;;;;4962560;28;20222;-72
2021/10/28 06:42:37;;;;;;;11.67;7.80;;;5.70;91.60;;;;;;4944143;28;20182;-72
2021/10/28 06:45:03;;;;;;;19.20;8.63;;;6.00;91.70;;;;;;4945044;28;20205;-72
2021/10/28 06:47:29;;;;;;;14.20;7.63;;;6.30;91.70;;;;;;4958004;28;20290;-72
2021/10/28 06:49:56;;;;;;;10.07;6.93;;;6.80;91.50;;;;;;4960753;28;20269;-72
2021/10/28 06:52:22;;;;;;;13.33;7.50;;;7.40;91.20;;;;;;4963088;28;20190;-71
2021/10/28 06:54:48;;;;;;;14.67;7.23;;;8.10;89.80;;;;;;4962231;28;20786;-72
2021/10/28 07:02:43;;;;;;;15.63;7.83;;;10.20;85.40;;;;;;5025473;28;20708;-72
2021/10/28 07:05:09;;;;;;;13.00;7.80;;;11.00;82.90;;;;;;5023777;28;20219;-72
2021/10/28 07:07:35;;;;;;;14.67;8.00;;;11.70;79.50;;;;;;5024000;28;20613;-72
2021/10/28 07:15:15;;;;;;;12.80;9.23;;;13.30;75.20;;;;;;5022715;28;20196;-72
2021/10/28 07:39:03;;;;;;;17.52;11.23;;;18.00;63.50;;;;;;4927472;29;20250;-74
2021/10/28 08:14:23;;;;;;;23.25;17.08;;;21.20;56.60;;;;;;4997551;28;20283;-70
2021/10/28 08:19:49;;;;;;;28.35;19.20;;;21.90;56.40;;;;;;5002364;28;20508;-72
2021/10/28 08:22:22;;;;;;;24.63;18.15;;;22.30;55.30;;;;;;5002999;28;20189;-74
2021/10/28 08:30:28;;;;;;;30.42;19.02;;;23.70;54.40;;;;;;5029037;28;20656;-74
2021/10/28 08:32:55;;;;;;;21.70;17.67;;;23.80;53.40;;;;;;5026267;28;20211;-73
2021/10/28 08:35:20;;;;;;;26.25;18.60;;;23.70;53.10;;;;;;5026263;28;20648;-69
2021/10/28 08:37:51;;;;;;;35.67;17.17;;;23.70;52.70;;;;;;5026644;28;20291;-72
2021/10/28 08:40:18;;;;;;;28.13;18.35;;;23.80;52.90;;;;;;5026640;28;20188;-72
2021/10/28 08:42:45;;;;;;;25.80;17.33;;;24.10;53.20;;;;;;5026461;28;20222;-74
2021/10/28 08:45:17;;;;;;;24.45;16.42;;;24.40;52.20;;;;;;5025511;28;20579;-74
2021/10/28 08:47:47;;;;;;;22.15;15.68;;;24.80;52.30;;;;;;5025438;28;20192;-73
2021/10/28 08:50:31;;;;;;;25.27;15.70;;;25.30;51.80;;;;;;5019319;28;20188;-74
2021/10/28 08:55:37;;;;;;;25.88;15.10;;;26.40;50.40;;;;;;5010762;28;20172;-74
2021/10/28 09:26:57;;;;;;;21.38;15.48;;;29.50;47.50;;;;;;5024018;28;20181;-75
2021/10/28 09:51:18;;;;;;;20.08;13.48;;;30.90;45.50;;;;;;5021380;28;20209;-74
2021/10/28 09:59:43;;;;;;;11.18;9.63;;;31.30;45.20;;;;;;5018757;28;20709;-73
2021/10/28 10:02:19;;;;;;;10.38;9.27;;;31.60;46.30;;;;;;5019047;28;20199;-73
2021/10/28 10:04:47;;;;;;;9.80;8.90;;;31.80;44.80;;;;;;5019812;28;20191;-73
2021/10/28 10:07:16;;;;;;;12.40;8.95;;;31.70;46.00;;;;;;5018044;28;20180;-74
2021/10/28 10:09:42;;;;;;;9.52;8.48;;;31.90;45.70;;;;;;5021113;28;20233;-73
2021/10/28 10:12:08;;;;;;;8.23;7.47;;;31.90;44.60;;;;;;5019398;28;20183;-74
2021/10/28 10:14:38;;;;;;;6.95;6.30;;;32.10;45.10;;;;;;5022739;28;20250;-74
2021/10/28 10:17:07;;;;;;;10.00;6.15;;;32.00;44.60;;;;;;5023627;28;20195;-75
2021/10/28 10:19:40;;;;;;;6.95;6.35;;;31.60;45.70;;;;;;5022359;28;20814;-72
2021/10/28 10:30:29;;;;;;;5.63;5.22;;;31.30;44.90;;;;;;5022648;28;20180;-75
2021/10/28 12:21:51;;;;;;;1.63;1.40;;;28.10;40.70;;;;;;5025116;28;20207;-77
2021/10/28 12:44:08;;;;;;;1.30;1.30;;;28.30;40.00;;;;;;5027416;28;20187;-75
2021/10/28 15:28:16;;;;;;;3.78;1.98;;;16.60;50.40;;;;;;5022980;28;20274;-73
2021/10/28 15:36:05;;;;;;;2.28;2.08;;;15.80;52.00;;;;;;5026026;28;20184;-78
2021/10/28 15:54:43;;;;;;;1.52;1.52;;;14.50;54.80;;;;;;5025006;28;20188;-74
2021/10/28 16:24:08;;;;;;;6.93;3.95;;;13.50;58.50;;;;;;5023316;28;20245;-72
2021/10/28 16:26:34;;;;;;;3.28;2.90;;;13.40;59.40;;;;;;5026935;28;20184;-71
2021/10/28 16:29:02;;;;;;;3.17;2.97;;;13.20;59.40;;;;;;5025479;28;20602;-70
2021/10/28 16:31:28;;;;;;;2.92;2.67;;;13.10;59.60;;;;;;5023511;28;20183;-75
2021/10/28 16:33:54;;;;;;;3.00;2.80;;;13.00;59.90;;;;;;5022344;28;20192;-72
2021/10/28 16:36:24;;;;;;;3.35;3.05;;;12.90;60.60;;;;;;5025643;28;20192;-71
2021/10/28 16:38:50;;;;;;;2.75;2.65;;;12.80;60.80;;;;;;5026836;28;20614;-71
2021/10/28 16:41:16;;;;;;;3.15;2.78;;;12.70;61.70;;;;;;5025706;28;20659;-73
2021/10/28 16:43:42;;;;;;;5.40;2.97;;;12.50;62.00;;;;;;5056962;28;20211;-73
2021/10/28 16:46:08;;;;;;;3.40;3.10;;;12.40;62.30;;;;;;5024236;28;20184;-73
2021/10/28 16:48:36;;;;;;;4.63;2.83;;;12.30;62.70;;;;;;5025752;28;20208;-73
2021/10/28 16:51:03;;;;;;;3.45;2.95;;;12.30;62.40;;;;;;5025688;28;20290;-74
2021/10/28 16:53:28;;;;;;;3.97;3.13;;;12.20;62.70;;;;;;5025063;28;20181;-71
2021/10/28 16:55:54;;;;;;;3.47;2.92;;;12.20;62.30;;;;;;5024364;28;20257;-73
2021/10/28 16:58:20;;;;;;;3.45;3.15;;;12.10;62.70;;;;;;5022762;28;20259;-73
2021/10/28 17:00:49;;;;;;;3.13;2.92;;;12.10;62.70;;;;;;5025562;28;20180;-72
2021/10/28 17:03:15;;;;;;;3.00;2.78;;;12.00;62.50;;;;;;5012457;28;20565;-73
2021/10/28 17:05:42;;;;;;;2.90;2.72;;;12.00;62.70;;;;;;5022194;28;20741;-73
2021/10/28 17:08:08;;;;;;;3.20;2.88;;;12.00;63.30;;;;;;5016343;28;20904;-73
2021/10/28 17:10:34;;;;;;;5.72;3.05;;;11.90;63.00;;;;;;5022317;28;20172;-73
2021/10/28 17:12:59;;;;;;;3.15;2.95;;;11.90;63.30;;;;;;5023827;28;20215;-73
2021/10/28 17:15:25;;;;;;;3.25;2.95;;;11.90;63.60;;;;;;5025354;28;20191;-73
2021/10/28 17:17:51;;;;;;;4.72;3.05;;;11.80;64.40;;;;;;5025475;28;20709;-74
2021/10/28 17:20:18;;;;;;;2.67;2.42;;;11.80;64.20;;;;;;5024016;28;20191;-74
2021/10/28 17:22:44;;;;;;;3.33;3.03;;;11.70;65.00;;;;;;5023023;28;20187;-73
2021/10/28 17:25:18;;;;;;;2.40;2.30;;;11.70;65.20;;;;;;5019826;28;20188;-69
2021/10/28 17:27:46;;;;;;;2.67;2.47;;;11.70;65.20;;;;;;5020353;28;20201;-71
2021/10/28 17:30:13;;;;;;;2.88;2.67;;;11.60;65.60;;;;;;5025033;28;20267;-73
2021/10/28 17:32:41;;;;;;;3.25;2.72;;;11.60;65.60;;;;;;5025560;28;20183;-72
2021/10/28 17:35:07;;;;;;;4.43;3.22;;;11.50;65.90;;;;;;5024974;28;20616;-73
2021/10/28 17:37:33;;;;;;;2.80;2.58;;;11.40;66.10;;;;;;5026295;28;20302;-73
2021/10/28 17:39:59;;;;;;;3.47;3.22;;;11.40;66.60;;;;;;5024778;28;20267;-73
2021/10/28 17:42:25;;;;;;;3.47;3.22;;;11.30;67.10;;;;;;5024984;28;20185;-72
2021/10/28 17:44:56;;;;;;;4.68;2.67;;;11.20;67.10;;;;;;5021715;28;20184;-72
2021/10/28 17:47:24;;;;;;;3.92;3.20;;;11.20;67.80;;;;;;5021504;28;20243;-73
2021/10/28 17:49:50;;;;;;;5.25;2.75;;;11.10;68.20;;;;;;5021897;28;20184;-75
2021/10/28 17:52:17;;;;;;;3.20;3.00;;;11.00;68.70;;;;;;5020692;28;20187;-72
2021/10/28 17:54:43;;;;;;;2.80;2.50;;;11.00;68.50;;;;;;5020283;28;20683;-72
2021/10/28 17:57:09;;;;;;;3.28;2.80;;;10.90;69.00;;;;;;5022255;28;20283;-71
2021/10/28 17:59:35;;;;;;;2.53;2.42;;;10.90;69.30;;;;;;5023190;28;20195;-72
2021/10/28 18:02:01;;;;;;;3.33;3.15;;;10.80;69.40;;;;;;5023331;28;20183;-74
2021/10/28 18:04:26;;;;;;;2.97;2.83;;;10.80;69.50;;;;;;5022640;28;20568;-72
2021/10/28 18:06:52;;;;;;;3.38;2.78;;;10.70;70.00;;;;;;5024828;28;20187;-69
2021/10/28 18:09:18;;;;;;;3.15;2.95;;;10.70;70.80;;;;;;5021271;28;20208;-70
2021/10/28 18:11:45;;;;;;;3.42;3.15;;;10.70;70.10;;;;;;5024805;28;20694;-70
2021/10/28 18:14:15;;;;;;;2.72;2.63;;;10.70;69.80;;;;;;5021841;28;20612;-69
2021/10/28 18:16:41;;;;;;;2.60;2.45;;;10.70;70.30;;;;;;5022510;28;20182;-69
2021/10/28 18:19:10;;;;;;;4.20;2.85;;;10.70;70.60;;;;;;5023296;28;20262;-69
2021/10/28 18:21:42;;;;;;;3.95;2.92;;;10.60;70.20;;;;;;5025268;28;20184;-71
2021/10/28 18:24:09;;;;;;;2.90;2.60;;;10.60;70.10;;;;;;5023706;28;20184;-71
2021/10/28 18:26:34;;;;;;;2.67;2.58;;;10.50;70.60;;;;;;5023510;28;20176;-72
2021/10/28 18:29:00;;;;;;;3.50;3.13;;;10.50;70.70;;;;;;5022224;28;20216;-72
2021/10/28 18:31:27;;;;;;;3.78;2.83;;;10.40;70.20;;;;;;5024784;28;20184;-71
2021/10/28 18:33:57;;;;;;;3.67;3.20;;;10.40;69.90;;;;;;5024506;28;20283;-71
2021/10/28 18:36:25;;;;;;;4.65;3.25;;;10.40;70.50;;;;;;5024452;28;20675;-71
2021/10/28 18:38:51;;;;;;;2.67;2.47;;;10.40;70.10;;;;;;5026041;28;20190;-71
2021/10/28 18:41:19;;;;;;;3.75;2.85;;;10.30;70.40;;;;;;5022715;28;20188;-73
2021/10/28 18:43:46;;;;;;;2.80;2.58;;;10.30;70.60;;;;;;5022098;28;20902;-70
2021/10/28 18:46:13;;;;;;;2.83;2.73;;;10.20;70.60;;;;;;5022791;28;20800;-71
2021/10/28 18:48:38;;;;;;;2.63;2.53;;;10.20;70.40;;;;;;5020421;28;20228;-71
2021/10/28 18:51:04;;;;;;;6.03;2.80;;;10.20;70.70;;;;;;5022993;28;20567;-71
2021/10/28 18:53:35;;;;;;;3.33;2.60;;;10.20;71.40;;;;;;5020845;28;20192;-71
2021/10/28 18:56:01;;;;;;;2.88;2.72;;;10.20;71.00;;;;;;5024946;28;20654;-71
2021/10/28 18:58:28;;;;;;;3.10;2.90;;;10.20;71.30;;;;;;5023410;28;20330;-72
2021/10/28 19:00:55;;;;;;;4.23;2.70;;;10.10;71.60;;;;;;5024982;28;20192;-73
2021/10/28 19:03:21;;;;;;;2.83;2.60;;;10.10;71.50;;;;;;5017860;28;20185;-72
2021/10/28 19:05:46;;;;;;;2.67;2.47;;;10.10;71.20;;;;;;5023750;28;20234;-72
2021/10/28 19:08:13;;;;;;;3.50;3.17;;;10.00;71.60;;;;;;5023472;28;20218;-72
2021/10/28 19:10:39;;;;;;;2.87;2.70;;;10.10;71.40;;;;;;5015736;28;20287;-72
2021/10/28 19:13:04;;;;;;;2.50;2.40;;;10.00;71.50;;;;;;5019547;28;20598;-72
2021/10/28 19:15:30;;;;;;;2.70;2.47;;;10.00;71.60;;;;;;5025122;28;20181;-72
2021/10/28 19:17:56;;;;;;;3.08;2.78;;;10.00;71.30;;;;;;5020088;28;20188;-73
2021/10/28 19:20:25;;;;;;;2.97;2.77;;;10.00;71.90;;;;;;5020297;28;20176;-75
2021/10/28 19:22:53;;;;;;;2.80;2.60;;;10.00;72.00;;;;;;5022589;28;20181;-71
2021/10/28 19:25:19;;;;;;;5.60;2.73;;;10.00;72.00;;;;;;5022768;28;20298;-75
2021/10/28 19:27:46;;;;;;;3.88;2.53;;;10.00;72.10;;;;;;5022178;28;20299;-73
2021/10/28 19:32:44;;;;;;;2.87;2.37;;;9.90;71.70;;;;;;5020734;28;20188;-73
2021/10/28 19:35:10;;;;;;;2.85;2.67;;;9.90;71.90;;;;;;5022377;28;20249;-73
2021/10/28 19:38:04;;;;;;;7.17;3.00;;;9.90;72.20;;;;;;5023001;28;20693;-73
2021/10/28 19:48:11;;;;;;;5.68;3.28;;;9.80;72.70;;;;;;4985763;28;20216;-71
2021/10/28 19:50:37;;;;;;;3.28;3.08;;;9.70;72.90;;;;;;4980151;28;20193;-71
2021/10/28 19:53:03;;;;;;;5.40;3.50;;;9.70;73.30;;;;;;4985276;28;20280;-71
2021/10/28 19:55:30;;;;;;;4.33;3.40;;;9.60;73.00;;;;;;4986033;28;20197;-71
2021/10/28 19:57:56;;;;;;;3.83;3.07;;;9.60;73.50;;;;;;4983480;28;20197;-71
2021/10/28 20:21:10;;;;;;;2.70;2.50;;;9.40;75.10;;;;;;4980817;28;20199;-71
2021/10/28 20:23:37;;;;;;;15.33;3.73;;;9.40;75.20;;;;;;5024307;28;20212;-71
2021/10/28 20:26:03;;;;;;;3.07;2.87;;;9.40;75.10;;;;;;5025600;28;20185;-73
2021/10/28 20:28:29;;;;;;;3.27;2.97;;;9.40;75.60;;;;;;5029159;28;20617;-71
2021/10/28 20:30:58;;;;;;;3.93;3.63;;;9.40;75.50;;;;;;5024725;28;20176;-71
2021/10/28 20:33:29;;;;;;;2.63;2.43;;;9.40;75.20;;;;;;5027820;28;20195;-71
2021/10/28 20:38:40;;;;;;;3.27;3.07;;;9.30;75.80;;;;;;5021410;28;20599;-71
2021/10/28 20:41:06;;;;;;;3.30;3.00;;;9.30;76.10;;;;;;5024896;28;20176;-71
2021/10/28 20:43:33;;;;;;;3.17;2.80;;;9.30;76.50;;;;;;5025616;28;20191;-72
2021/10/28 20:45:59;;;;;;;2.83;2.73;;;9.20;76.10;;;;;;5026699;28;20180;-72
2021/10/28 20:48:25;;;;;;;3.90;3.47;;;9.20;76.20;;;;;;5028003;28;20696;-72
2021/10/28 20:50:51;;;;;;;2.77;2.47;;;9.20;76.20;;;;;;5022297;28;20682;-71
2021/10/28 20:53:18;;;;;;;3.80;3.03;;;9.20;76.20;;;;;;5025384;28;20654;-71
2021/10/28 20:55:44;;;;;;;4.63;3.77;;;9.20;76.50;;;;;;5023791;28;20212;-72
2021/10/28 20:58:10;;;;;;;3.87;3.17;;;9.20;76.90;;;;;;5026053;28;20273;-71
2021/10/28 21:00:36;;;;;;;3.30;3.07;;;9.10;76.50;;;;;;5021012;28;20244;-71
2021/10/28 21:03:02;;;;;;;3.37;3.07;;;9.10;76.70;;;;;;5027133;28;20241;-71
2021/10/28 21:05:29;;;;;;;4.00;3.40;;;9.10;76.80;;;;;;5026287;28;20181;-72
2021/10/28 21:07:55;;;;;;;8.03;4.50;;;9.10;76.70;;;;;;5027976;28;20291;-72
2021/10/28 21:10:25;;;;;;;6.13;3.83;;;9.00;77.60;;;;;;5018933;28;20287;-72
2021/10/28 21:12:51;;;;;;;2.33;2.13;;;8.90;77.40;;;;;;5026098;28;20188;-71
2021/10/28 21:15:18;;;;;;;3.43;3.07;;;8.90;77.70;;;;;;5022339;28;20879;-71
2021/10/28 21:17:44;;;;;;;3.10;2.80;;;8.90;77.60;;;;;;5026819;28;20586;-71
2021/10/28 21:20:11;;;;;;;3.37;3.00;;;8.80;77.80;;;;;;5024263;28;20181;-72
2021/10/28 21:22:38;;;;;;;4.40;3.37;;;8.80;77.90;;;;;;5026680;28;20643;-71
2021/10/28 21:25:05;;;;;;;3.73;3.40;;;8.70;77.90;;;;;;5025806;28;20267;-71
2021/10/28 21:27:32;;;;;;;3.93;3.07;;;8.70;78.40;;;;;;5025563;28;20184;-71
2021/10/28 21:29:57;;;;;;;3.63;3.33;;;8.70;78.30;;;;;;5025346;28;20184;-72
2021/10/28 21:32:24;;;;;;;3.90;3.47;;;8.70;78.40;;;;;;5024619;28;20203;-72
2021/10/28 21:34:49;;;;;;;3.87;3.27;;;8.70;78.70;;;;;;5020681;28;20200;-71
2021/10/28 21:37:17;;;;;;;5.97;3.13;;;8.60;79.00;;;;;;5023910;28;20176;-71
2021/10/28 21:39:43;;;;;;;3.50;3.20;;;8.60;79.20;;;;;;5022249;28;20219;-72
2021/10/28 21:42:09;;;;;;;3.27;3.03;;;8.50;79.70;;;;;;5026512;28;20181;-71
2021/10/28 21:44:36;;;;;;;3.00;2.90;;;8.50;79.60;;;;;;5021657;28;20641;-72
2021/10/28 21:47:03;;;;;;;3.53;3.23;;;8.50;79.50;;;;;;5019265;28;20185;-71
2021/10/28 21:49:29;;;;;;;3.67;3.37;;;8.50;79.70;;;;;;5023135;28;20307;-71
2021/10/28 21:51:57;;;;;;;3.23;3.00;;;8.50;80.00;;;;;;5025768;28;20267;-72
2021/10/28 21:56:57;;;;;;;3.37;3.07;;;8.50;80.10;;;;;;5027814;28;20567;-71
2021/10/28 22:02:24;;;;;;;3.57;3.37;;;8.40;80.10;;;;;;5024182;28;20187;-71
2021/10/28 22:26:16;;;;;;;3.17;2.93;;;8.00;82.10;;;;;;4945281;28;20657;-71
2021/10/28 22:28:42;;;;;;;3.77;3.20;;;8.00;82.40;;;;;;4943929;28;20283;-71
2021/10/28 22:31:07;;;;;;;3.83;3.53;;;8.00;82.30;;;;;;4944654;28;20187;-70
2021/10/28 22:33:33;;;;;;;3.53;3.33;;;8.00;82.70;;;;;;4944233;28;20219;-71
2021/10/28 22:36:06;;;;;;;3.73;3.43;;;8.00;82.30;;;;;;4945833;29;20665;-70
2021/10/28 22:38:34;;;;;;;4.90;3.70;;;8.00;82.80;;;;;;4945432;28;20229;-70
2021/10/28 22:41:01;;;;;;;4.07;3.20;;;8.00;82.60;;;;;;4942529;29;20199;-70
2021/10/28 22:43:27;;;;;;;3.70;3.30;;;8.00;82.70;;;;;;4945927;28;20183;-70
2021/10/28 22:45:53;;;;;;;3.17;2.97;;;8.00;82.60;;;;;;4944021;28;20253;-70
2021/10/28 22:48:19;;;;;;;4.67;3.33;;;8.00;82.30;;;;;;4944625;28;20540;-70
2021/10/28 22:50:46;;;;;;;3.90;3.47;;;8.00;82.30;;;;;;4943794;28;20723;-70
2021/10/28 22:53:12;;;;;;;6.50;3.60;;;8.10;82.70;;;;;;4942342;28;20198;-70
2021/10/28 22:55:41;;;;;;;3.43;3.17;;;8.10;82.40;;;;;;5021775;28;20196;-70
2021/10/28 23:00:46;;;;;;;6.33;3.20;;;8.10;82.10;;;;;;5022643;28;20713;-70
2021/10/28 23:17:02;;;;;;;3.20;2.90;;;8.00;81.80;;;;;;4973373;28;20192;-70
2021/10/28 23:22:12;;;;;;;3.67;3.47;;;8.00;81.90;;;;;;4971992;28;20194;-70